Laurentian Fan: Past 24 Hour Conditions

 

Blanc-Sablon Airport

08:00 AM AST 24 October 2014
This table is a summary of hourly weather conditions for the past 24 hours.
Date / Time
(AST)
Wind(knots) Conditions Visibility(km) Pressure(kPa) Air tempC) Relative humidity(%) Dew pointC) Wind Chill
24 October 2014
8:00 NNE 9 Mainly Sunny 24 101.9 5 65 -2 *
7:00 NE 9 Mainly Sunny 24 101.9 3 68 -3 *
6:00 NE 10 Mainly Clear 24 101.8 3 67 -3 *
5:00 NNE 7 Clear 24 101.8 0 85 -2 *
4:00 E 3 Clear 24 101.9 0 94 -1 -2
3:00 NE 4 Clear 24 101.9 0 92 -1 *
2:00 ENE 3 Clear 24 101.9 1 92 -1 *
1:00 ENE 2 Clear 24 102.0 1 91 0 *
0:00 N 2 Clear 24 102.0 0 92 -1 *
23 October 2014
23:00 NE 2 Clear 24 102.0 1 95 0 *
22:00 calm Clear 24 102.1 1 96 0 *
21:00 calm Clear 24 102.1 2 91 1 *
20:00 WNW 5 Clear 24 102.2 3 89 1 *
19:00 WNW 6 Clear 24 102.2 4 87 2 *
18:00 W 9 Clear 24 102.2 5 84 2 *
17:00 W 8 Clear 24 102.3 5 80 2 *
16:00 WSW 11 Sunny 24 102.3 7 72 2 *
15:00 W 11 Sunny 24 102.3 7 69 2 *
14:00 WSW 13 gust 19 Sunny 24 102.4 8 71 3 *
13:00 WSW 14 Sunny 24 102.4 8 64 1 *
12:00 WSW 13 Sunny 24 102.5 7 65 1 *
11:00 W 12 Sunny 24 102.6 6 67 0 *
10:00 WSW 11 Sunny 24 102.6 5 66 -1 *
9:00 W 10 Sunny 24 102.7 4 76 0 *
8:00 W 5 Sunny 24 102.7 3 82 0 *
 
Map of Atlantic - Newfoundland marine weather areas Southwestern Grand Banks - 44138 Banquereau - 44139 Tail of the Bank - 44140 Nickerson Bank - 44251 Northeast Burgeo Bank - 44255 Blanc-Sablon Airport Cap Whittle Chevery Natashquan Airport Heath Point Miscou Island Grand Étang Ingonish Beach North Mountain St.Paul Island J.A. Douglas McCurdy Sydney Airport Charlottetown Airport East Point North Cape Argentia Bonavista Burgeo Cape Race Corner Brook Daniel's Harbour Englee Ferolle Point La Scie Port aux Basques Rocky Harbour Sagona Island St. Anthony Airport St. John's Int'l Airport St. Lawrence Stephenville Airport Twillingate Winterland Wreckhouse Cartwright Airport Mary's Harbour Grates Cove Pool's Island Marticot Island Long Pond Îles de la Madeleine Airport
Legend: buoyBuoy land stationLand Station